Time;durP1;ratioP1;P1;durP2;ratioP2;P2;SDS_P1;SDS_P2;PMS_P1;PMS_P2;Temp;Humidity;BMP_temperature;BMP_pressure;BME280_temperature;BME280_humidity;BME280_pressure;Samples;Min_cycle;Max_cycle;Signal;HPM_P1;HPM_P2
2023/01/13 00:02:26;;;;;;;0.47;0.47;;;;;;;8.55;100.00;97791.03;7390745;19;20048;-84
2023/01/13 00:04:52;;;;;;;0.10;0.10;;;;;;;8.40;100.00;97785.06;7393287;19;20013;-84
2023/01/13 00:07:19;;;;;;;0.10;0.00;;;;;;;8.30;100.00;97792.13;7391091;19;20050;-85
2023/01/13 00:09:45;;;;;;;1.65;0.20;;;;;;;8.36;100.00;97792.84;7390633;19;20461;-85
2023/01/13 00:12:12;;;;;;;2.03;0.75;;;;;;;8.38;100.00;97768.16;7393834;19;20710;-86
2023/01/13 00:14:38;;;;;;;1.38;0.35;;;;;;;8.13;100.00;97810.81;7394513;19;20430;-86
2023/01/13 00:17:04;;;;;;;0.35;0.08;;;;;;;8.34;100.00;97815.56;7393083;19;20023;-85
2023/01/13 00:19:30;;;;;;;0.38;0.38;;;;;;;8.28;100.00;97794.66;7393568;19;20671;-87
2023/01/13 00:21:56;;;;;;;4.15;1.65;;;;;;;8.35;100.00;97785.81;7395254;19;20022;-86
2023/01/13 00:24:22;;;;;;;4.50;0.30;;;;;;;8.11;100.00;97816.88;7393632;19;20010;-86
2023/01/13 00:26:48;;;;;;;0.20;0.20;;;;;;;7.95;100.00;97819.69;7399447;19;20014;-86
2023/01/13 00:29:15;;;;;;;3.22;1.23;;;;;;;7.91;100.00;97816.41;7395384;19;20011;-86
2023/01/13 00:31:44;;;;;;;3.92;0.38;;;;;;;7.55;100.00;97818.22;7393004;19;20019;-87
2023/01/13 00:34:10;;;;;;;2.83;0.20;;;;;;;7.86;100.00;97812.38;7392930;19;20457;-88
2023/01/13 00:36:36;;;;;;;5.05;0.38;;;;;;;7.63;100.00;97822.75;7399799;19;20015;-88
2023/01/13 00:39:03;;;;;;;12.35;0.55;;;;;;;7.63;100.00;97817.22;7396659;19;20035;-89
2023/01/13 00:43:21;;;;;;;4.70;0.63;;;;;;;7.52;100.00;97808.91;7394967;19;20021;-87
2023/01/13 00:44:15;;;;;;;0.73;0.20;;;;;;;7.57;100.00;97827.53;7393006;19;20018;-88
2023/01/13 00:46:41;;;;;;;0.90;0.50;;;;;;;7.34;100.00;97837.09;7398058;19;20018;-88
2023/01/13 00:49:07;;;;;;;0.17;0.17;;;;;;;7.20;100.00;97821.50;7395350;19;20424;-88
2023/01/13 00:51:33;;;;;;;0.57;0.57;;;;;;;7.39;100.00;97833.56;7395596;19;20015;-88
2023/01/13 00:54:00;;;;;;;2.40;0.68;;;;;;;7.06;100.00;97841.84;7388796;19;20617;-84
2023/01/13 00:56:26;;;;;;;0.70;0.47;;;;;;;7.41;100.00;97825.53;7394948;19;20019;-85
2023/01/13 00:58:52;;;;;;;1.27;0.88;;;;;;;7.41;100.00;97847.66;7390053;19;20473;-84
2023/01/13 01:01:20;;;;;;;0.98;0.52;;;;;;;7.32;100.00;97839.59;7387608;19;20055;-83
2023/01/13 01:03:48;;;;;;;0.68;0.20;;;;;;;7.48;100.00;97858.25;7386872;19;20011;-84
2023/01/13 01:06:17;;;;;;;0.10;0.08;;;;;;;7.73;100.00;97836.34;7389516;19;20035;-83
2023/01/13 01:08:44;;;;;;;0.10;0.00;;;;;;;7.88;100.00;97840.38;7388274;19;20025;-83
2023/01/13 01:11:13;;;;;;;0.40;0.20;;;;;;;7.96;100.00;97846.91;7386230;19;20018;-83
2023/01/13 01:13:40;;;;;;;0.20;0.20;;;;;;;7.68;100.00;97850.94;7394976;19;20030;-84
2023/01/13 01:16:09;;;;;;;0.10;0.10;;;;;;;7.64;100.00;97859.53;7398922;19;20056;-83
2023/01/13 01:18:37;;;;;;;0.10;0.10;;;;;;;7.34;100.00;97853.69;7394528;19;20029;-84
2023/01/13 01:21:04;;;;;;;0.28;0.28;;;;;;;7.40;100.00;97857.25;7394259;19;20017;-84
2023/01/13 01:23:31;;;;;;;0.10;0.10;;;;;;;7.50;100.00;97854.97;7394352;19;20077;-84
2023/01/13 01:26:07;;;;;;;0.10;0.00;;;;;;;7.42;100.00;97853.97;7397723;19;20018;-84
2023/01/13 01:28:34;;;;;;;0.20;0.20;;;;;;;7.40;100.00;97851.72;7395674;19;20014;-84
2023/01/13 01:31:08;;;;;;;6.47;0.60;;;;;;;7.28;100.00;97858.47;7392336;19;20041;-84
2023/01/13 01:33:35;;;;;;;0.15;0.10;;;;;;;7.19;100.00;97869.78;7391408;19;20018;-83
2023/01/13 01:36:02;;;;;;;0.10;0.05;;;;;;;7.05;100.00;97873.56;7395731;19;20022;-83
2023/01/13 01:38:28;;;;;;;0.52;0.35;;;;;;;7.31;100.00;97890.72;7393027;19;20018;-83
2023/01/13 01:40:55;;;;;;;7.72;0.80;;;;;;;7.54;100.00;97872.09;7394854;19;20508;-83
2023/01/13 01:44:07;;;;;;;3.22;0.20;;;;;;;7.53;100.00;97884.44;7393661;19;20019;-83
2023/01/13 01:46:40;;;;;;;0.10;0.10;;;;;;;7.64;100.00;97895.53;7395941;19;20039;-83
2023/01/13 01:49:09;;;;;;;3.97;1.27;;;;;;;7.50;100.00;97899.28;7393036;19;20078;-83
2023/01/13 01:51:40;;;;;;;0.10;0.10;;;;;;;7.55;100.00;97902.06;7393400;19;20501;-83
2023/01/13 01:54:11;;;;;;;15.50;0.43;;;;;;;7.51;100.00;97876.63;7391654;19;20486;-83
2023/01/13 01:56:40;;;;;;;5.53;0.65;;;;;;;7.73;100.00;97913.91;7396338;19;20402;-83
2023/01/13 01:59:07;;;;;;;0.52;0.52;;;;;;;7.61;100.00;97915.91;7391246;19;20018;-83
2023/01/13 02:01:33;;;;;;;0.98;0.20;;;;;;;7.60;100.00;97912.38;7392323;19;20010;-83
2023/01/13 02:04:10;;;;;;;0.10;0.00;;;;;;;7.69;100.00;97914.16;7394922;19;20018;-83
2023/01/13 02:06:37;;;;;;;0.38;0.38;;;;;;;7.39;100.00;97916.66;7396246;19;20018;-84
2023/01/13 02:09:03;;;;;;;0.10;0.10;;;;;;;7.61;100.00;97921.47;7395169;19;20010;-84
2023/01/13 02:14:22;;;;;;;0.20;0.20;;;;;;;7.66;100.00;97929.03;7388355;19;20022;-83
2023/01/13 02:17:20;;;;;;;2.10;1.08;;;;;;;7.65;100.00;97917.19;7397092;19;20018;-83
2023/01/13 02:20:26;;;;;;;0.95;0.10;;;;;;;7.48;100.00;97927.50;7392851;19;20035;-82
2023/01/13 02:26:37;;;;;;;5.38;0.30;;;;;;;7.75;100.00;97948.19;7393301;19;20477;-82
2023/01/13 02:32:24;;;;;;;0.15;0.15;;;;;;;7.74;100.00;97943.13;7389413;19;20047;-83
2023/01/13 02:35:01;;;;;;;0.10;0.05;;;;;;;7.81;100.00;97953.72;7390319;19;20010;-83
2023/01/13 02:37:32;;;;;;;14.43;2.08;;;;;;;7.55;100.00;97954.69;7390107;19;20481;-83
2023/01/13 02:40:03;;;;;;;0.32;0.32;;;;;;;7.60;100.00;97959.47;7393850;19;20015;-83
2023/01/13 02:45:23;;;;;;;0.10;0.10;;;;;;;8.00;100.00;97955.47;7393970;19;20026;-83
2023/01/13 02:47:54;;;;;;;0.10;0.10;;;;;;;7.64;100.00;97965.53;7391618;19;20039;-82
2023/01/13 02:50:31;;;;;;;1.02;0.22;;;;;;;8.10;100.00;97956.00;7389276;19;20040;-85
2023/01/13 02:53:04;;;;;;;0.98;0.43;;;;;;;7.81;100.00;97959.25;7388943;19;20022;-82
2023/01/13 02:55:37;;;;;;;0.30;0.30;;;;;;;7.61;100.00;97961.00;7390971;19;20089;-83
2023/01/13 02:58:07;;;;;;;0.40;0.40;;;;;;;7.70;100.00;97950.94;7390011;19;20011;-82
2023/01/13 03:00:35;;;;;;;0.30;0.15;;;;;;;7.76;100.00;97962.78;7390899;19;20025;-83
2023/01/13 03:03:02;;;;;;;2.90;0.35;;;;;;;7.70;100.00;97965.53;7393554;19;20014;-83
2023/01/13 03:05:30;;;;;;;0.20;0.20;;;;;;;8.07;100.00;97963.31;7390425;19;20021;-82
2023/01/13 03:08:10;;;;;;;5.15;0.15;;;;;;;8.09;100.00;97965.56;7391757;19;20483;-83
2023/01/13 03:10:48;;;;;;;0.30;0.30;;;;;;;7.72;100.00;97976.88;7389177;19;20599;-83
2023/01/13 03:13:20;;;;;;;18.27;1.38;;;;;;;8.21;100.00;97987.22;7388879;19;20086;-82
2023/01/13 03:15:46;;;;;;;1.00;0.43;;;;;;;8.26;100.00;97996.84;7390524;19;20018;-83
2023/01/13 03:18:40;;;;;;;0.50;0.40;;;;;;;8.21;100.00;97989.25;7392612;19;20018;-83
2023/01/13 03:21:19;;;;;;;0.10;0.00;;;;;;;8.06;100.00;97988.75;7390284;19;20349;-83
2023/01/13 03:23:53;;;;;;;3.95;0.35;;;;;;;7.73;100.00;97994.25;7386750;19;20074;-82
2023/01/13 03:26:29;;;;;;;1.95;0.30;;;;;;;7.70;100.00;98004.34;7391829;19;20025;-83
2023/01/13 03:29:25;;;;;;;0.10;0.05;;;;;;;7.72;100.00;98003.81;7388559;19;20377;-82
2023/01/13 03:32:30;;;;;;;0.10;0.10;;;;;;;7.55;100.00;97990.72;7387386;19;20024;-82
2023/01/13 03:35:03;;;;;;;0.20;0.10;;;;;;;7.47;100.00;98017.34;7390713;19;20007;-83
2023/01/13 03:37:37;;;;;;;1.45;0.47;;;;;;;7.55;100.00;98012.88;7386353;19;20602;-82
2023/01/13 03:40:13;;;;;;;12.52;1.45;;;;;;;7.66;100.00;98020.44;7392437;19;20014;-82
2023/01/13 03:44:20;;;;;;;0.60;0.20;;;;;;;7.53;100.00;98015.38;7388322;19;20014;-83
2023/01/13 03:45:32;;;;;;;5.72;0.95;;;;;;;7.41;100.00;98007.53;7392655;19;20018;-82
2023/01/13 03:47:59;;;;;;;0.28;0.22;;;;;;;7.80;100.00;98021.47;7388413;19;20421;-83
2023/01/13 03:50:40;;;;;;;3.17;0.68;;;;;;;7.82;100.00;98013.44;7386582;19;20022;-83
2023/01/13 03:53:13;;;;;;;0.85;0.52;;;;;;;7.68;100.00;98042.88;7391678;19;20011;-83
2023/01/13 03:55:44;;;;;;;0.10;0.10;;;;;;;7.58;100.00;98039.56;7397068;19;20022;-83
2023/01/13 03:58:19;;;;;;;0.22;0.20;;;;;;;7.42;100.00;98048.56;7390146;19;20025;-83
2023/01/13 04:00:58;;;;;;;7.75;0.30;;;;;;;7.27;100.00;98059.09;7389238;19;20093;-82
2023/01/13 04:03:34;;;;;;;3.63;1.27;;;;;;;7.27;100.00;98052.78;7386660;19;20018;-82
2023/01/13 04:06:22;;;;;;;3.35;0.50;;;;;;;7.46;100.00;98062.19;7390294;19;20022;-82
2023/01/13 04:09:10;;;;;;;5.25;0.82;;;;;;;7.87;100.00;98068.09;7387542;19;20018;-83
2023/01/13 04:11:42;;;;;;;0.00;0.00;;;;;;;7.71;100.00;98068.81;7386510;19;20393;-82
2023/01/13 04:14:11;;;;;;;0.43;0.38;;;;;;;8.13;100.00;98071.41;7390769;19;20031;-82
2023/01/13 04:16:38;;;;;;;0.15;0.08;;;;;;;7.63;100.00;98077.59;7391666;19;20024;-82
2023/01/13 04:19:05;;;;;;;0.82;0.17;;;;;;;7.47;100.00;98075.50;7386940;19;20018;-82
2023/01/13 04:21:32;;;;;;;0.00;0.00;;;;;;;7.60;100.00;98092.44;7386176;19;20048;-83
2023/01/13 04:23:58;;;;;;;1.45;0.30;;;;;;;7.89;100.00;98088.50;7385210;19;20011;-82
2023/01/13 04:26:24;;;;;;;0.10;0.08;;;;;;;8.06;100.00;98094.84;7389153;19;20011;-82
2023/01/13 04:28:53;;;;;;;2.65;0.10;;;;;;;7.57;100.00;98110.06;7388611;19;20015;-82
2023/01/13 04:31:20;;;;;;;0.28;0.10;;;;;;;8.04;100.00;98110.44;7384455;19;20018;-82
2023/01/13 04:33:46;;;;;;;0.22;0.22;;;;;;;7.98;100.00;98109.69;7384953;19;20082;-83
2023/01/13 04:36:12;;;;;;;5.60;0.70;;;;;;;8.00;100.00;98119.03;7388839;19;20383;-82
2023/01/13 04:38:38;;;;;;;0.10;0.10;;;;;;;8.42;100.00;98126.44;7386443;19;20025;-82
2023/01/13 04:41:04;;;;;;;7.38;0.85;;;;;;;8.07;100.00;98123.31;7386860;19;20018;-82
2023/01/13 04:43:30;;;;;;;0.10;0.10;;;;;;;7.95;100.00;98121.78;7384478;19;20042;-82
2023/01/13 04:45:57;;;;;;;0.73;0.55;;;;;;;8.41;100.00;98133.25;7389252;19;20022;-82
2023/01/13 04:48:23;;;;;;;1.58;0.50;;;;;;;8.09;100.00;98126.34;7384588;19;20052;-82
2023/01/13 04:50:49;;;;;;;0.10;0.00;;;;;;;8.11;100.00;98129.38;7383666;19;20031;-81
2023/01/13 04:53:15;;;;;;;3.22;0.32;;;;;;;8.00;100.00;98137.66;7386693;19;20026;-83
2023/01/13 04:55:43;;;;;;;0.30;0.30;;;;;;;8.27;100.00;98137.75;7388906;19;20031;-83
2023/01/13 04:58:10;;;;;;;0.20;0.20;;;;;;;8.80;100.00;98149.91;7389741;19;20026;-82
2023/01/13 05:00:36;;;;;;;0.60;0.30;;;;;;;8.71;100.00;98137.03;7384565;19;20029;-82
2023/01/13 05:03:03;;;;;;;0.00;0.00;;;;;;;8.75;100.00;98145.13;7384774;19;20850;-82
2023/01/13 05:05:30;;;;;;;0.82;0.57;;;;;;;9.22;100.00;98132.97;7386233;19;20031;-82
2023/01/13 05:07:56;;;;;;;0.20;0.20;;;;;;;8.13;100.00;98140.72;7386467;19;20056;-82
2023/01/13 05:10:23;;;;;;;0.10;0.00;;;;;;;7.87;100.00;98152.00;7388475;19;20485;-82
2023/01/13 05:18:20;;;;;;;0.10;0.08;;;;;;;7.98;100.00;98156.81;7388868;19;20019;-82
2023/01/13 05:20:46;;;;;;;1.75;0.63;;;;;;;8.20;100.00;98173.50;7386845;19;20023;-83
2023/01/13 05:25:57;;;;;;;0.10;0.10;;;;;;;8.28;100.00;98171.78;7389003;19;20116;-82
2023/01/13 05:28:23;;;;;;;0.25;0.15;;;;;;;8.35;100.00;98168.53;7383789;19;20815;-82
2023/01/13 05:30:51;;;;;;;0.10;0.00;;;;;;;8.39;100.00;98182.91;7382084;19;20121;-82
2023/01/13 05:33:21;;;;;;;0.10;0.00;;;;;;;9.22;100.00;98176.66;7383513;19;20022;-82
2023/01/13 05:35:48;;;;;;;0.10;0.10;;;;;;;9.55;100.00;98177.31;7387014;19;20014;-83
2023/01/13 05:38:15;;;;;;;0.00;0.00;;;;;;;9.40;100.00;98173.34;7384677;19;20015;-82
2023/01/13 05:43:27;;;;;;;0.05;0.00;;;;;;;9.18;100.00;98169.31;7387865;19;20037;-80
2023/01/13 05:45:57;;;;;;;0.10;0.00;;;;;;;9.13;100.00;98177.66;7386058;19;20015;-79
2023/01/13 05:48:26;;;;;;;0.10;0.05;;;;;;;8.99;100.00;98176.66;7384643;19;20047;-80
2023/01/13 05:50:53;;;;;;;0.10;0.00;;;;;;;9.03;100.00;98191.03;7382252;19;20030;-81
2023/01/13 05:53:20;;;;;;;1.00;0.22;;;;;;;8.97;100.00;98181.19;7382179;19;20038;-81
2023/01/13 05:55:46;;;;;;;0.25;0.22;;;;;;;9.80;100.00;98178.28;7389503;19;20010;-81
2023/01/13 05:58:15;;;;;;;0.25;0.25;;;;;;;9.80;100.00;98183.84;7383555;19;20022;-82
2023/01/13 06:00:41;;;;;;;3.83;0.10;;;;;;;9.68;100.00;98185.16;7390073;19;20061;-82
2023/01/13 06:03:08;;;;;;;0.10;0.00;;;;;;;9.79;100.00;98198.97;7389783;19;20019;-81
2023/01/13 06:05:35;;;;;;;0.10;0.00;;;;;;;9.69;100.00;98194.97;7393920;19;20018;-80
2023/01/13 06:08:04;;;;;;;0.10;0.05;;;;;;;9.79;100.00;98204.53;7390973;19;20485;-81
2023/01/13 06:10:30;;;;;;;0.75;0.57;;;;;;;9.62;100.00;98203.84;7392758;19;20090;-83
2023/01/13 06:12:57;;;;;;;0.10;0.00;;;;;;;9.48;100.00;98204.88;7392355;19;20022;-83
2023/01/13 06:15:23;;;;;;;3.72;0.68;;;;;;;9.04;100.00;98214.78;7393340;19;20018;-82
2023/01/13 06:17:50;;;;;;;2.45;0.30;;;;;;;9.37;100.00;98210.47;7390977;19;20692;-83
2023/01/13 06:20:17;;;;;;;0.10;0.00;;;;;;;9.58;100.00;98220.03;7391238;19;20025;-82
2023/01/13 06:22:46;;;;;;;1.17;0.13;;;;;;;9.47;100.00;98229.13;7392292;19;20038;-82
2023/01/13 06:25:28;;;;;;;0.10;0.00;;;;;;;8.96;100.00;98241.53;7394032;19;20023;-83
2023/01/13 06:27:57;;;;;;;0.15;0.10;;;;;;;8.77;100.00;98236.97;7394570;19;20101;-84
2023/01/13 06:30:25;;;;;;;0.93;0.45;;;;;;;8.25;100.00;98255.97;7391273;19;20052;-83
2023/01/13 06:32:57;;;;;;;1.40;0.75;;;;;;;8.37;100.00;98260.31;7390341;19;20044;-84
2023/01/13 06:35:26;;;;;;;;;;;;;;;8.92;100.00;98252.09;7395503;19;20473;-84
2023/01/13 06:37:55;;;;;;;0.10;0.00;;;;;;;8.76;100.00;98261.19;7392837;19;20332;-83
2023/01/13 06:40:22;;;;;;;0.82;0.13;;;;;;;8.09;100.00;98260.19;7396815;19;20018;-83
2023/01/13 06:45:36;;;;;;;8.52;1.05;;;;;;;8.74;100.00;98263.72;7392592;19;20036;-84
2023/01/13 06:48:02;;;;;;;5.30;0.95;;;;;;;8.89;100.00;98269.78;7393899;19;20022;-84
2023/01/13 06:50:29;;;;;;;4.55;2.10;;;;;;;8.81;100.00;98273.56;7391367;19;20025;-84
2023/01/13 06:52:55;;;;;;;13.20;1.35;;;;;;;9.00;100.00;98286.47;7391254;19;20043;-83
2023/01/13 06:55:21;;;;;;;7.65;0.50;;;;;;;9.01;100.00;98282.41;7395977;19;20018;-84
2023/01/13 06:57:49;;;;;;;2.53;1.05;;;;;;;8.79;100.00;98281.63;7391866;19;20015;-84
2023/01/13 07:00:16;;;;;;;1.45;0.40;;;;;;;8.43;100.00;98299.94;7392203;19;20027;-84
2023/01/13 07:02:42;;;;;;;0.25;0.20;;;;;;;8.94;100.00;98298.81;7390505;19;20770;-83
2023/01/13 07:05:08;;;;;;;0.20;0.20;;;;;;;8.93;100.00;98298.06;7394567;19;20048;-84
2023/01/13 07:07:34;;;;;;;2.20;0.50;;;;;;;9.53;100.00;98309.72;7391831;19;20361;-83
2023/01/13 07:10:01;;;;;;;10.95;1.45;;;;;;;9.35;100.00;98313.75;7393227;19;20363;-85
2023/01/13 07:12:27;;;;;;;1.55;1.38;;;;;;;9.23;100.00;98314.25;7395666;19;20526;-84
2023/01/13 07:17:38;;;;;;;0.38;0.38;;;;;;;9.28;100.00;98316.28;7391190;19;20385;-84
2023/01/13 07:20:05;;;;;;;0.43;0.43;;;;;;;9.14;100.00;98329.88;7389956;19;20022;-83
2023/01/13 07:22:31;;;;;;;0.10;0.00;;;;;;;9.67;100.00;98345.59;7392725;19;20051;-85
2023/01/13 07:24:57;;;;;;;1.58;0.63;;;;;;;9.67;100.00;98369.84;7393087;19;20027;-84
2023/01/13 07:27:23;;;;;;;6.55;0.73;;;;;;;9.63;100.00;98353.44;7394338;19;20049;-84
2023/01/13 07:29:49;;;;;;;0.20;0.20;;;;;;;9.84;100.00;98351.13;7394422;19;20391;-85
2023/01/13 07:32:15;;;;;;;0.80;0.40;;;;;;;9.91;100.00;98353.41;7394283;19;20030;-83
2023/01/13 07:34:41;;;;;;;23.48;0.90;;;;;;;9.57;100.00;98371.38;7394232;19;20014;-83
2023/01/13 07:37:08;;;;;;;0.43;0.30;;;;;;;9.77;100.00;98362.75;7394289;19;20014;-84
2023/01/13 07:39:34;;;;;;;0.00;0.00;;;;;;;10.49;100.00;98382.13;7394853;19;20022;-83
2023/01/13 07:44:44;;;;;;;8.48;0.85;;;;;;;9.83;100.00;98394.84;7395044;19;20042;-83
2023/01/13 07:47:11;;;;;;;2.75;0.77;;;;;;;9.83;100.00;98410.81;7394229;19;20034;-86
2023/01/13 07:49:37;;;;;;;0.73;0.25;;;;;;;9.72;100.00;98410.78;7393463;19;20473;-83
2023/01/13 07:52:03;;;;;;;7.22;0.45;;;;;;;9.52;100.00;98419.34;7393615;19;20021;-84
2023/01/13 07:54:29;;;;;;;13.02;0.80;;;;;;;9.94;100.00;98424.69;7392872;19;20048;-85
2023/01/13 07:56:55;;;;;;;0.10;0.00;;;;;;;9.88;100.00;98429.47;7396099;19;20042;-85
2023/01/13 07:59:22;;;;;;;2.28;0.65;;;;;;;9.67;100.00;98433.78;7395512;19;20742;-85
2023/01/13 08:01:48;;;;;;;0.90;0.10;;;;;;;10.21;100.00;98443.41;7394489;19;20028;-85
2023/01/13 08:04:14;;;;;;;0.10;0.00;;;;;;;10.40;100.00;98444.41;7390910;19;20356;-84
2023/01/13 08:06:40;;;;;;;0.10;0.10;;;;;;;10.77;100.00;98474.69;7392127;19;20019;-84
2023/01/13 08:09:08;;;;;;;0.10;0.10;;;;;;;10.03;100.00;98460.59;7390268;19;20337;-83
2023/01/13 08:11:34;;;;;;;0.93;0.10;;;;;;;9.73;100.00;98473.44;7393705;19;20018;-84
2023/01/13 08:14:00;;;;;;;9.32;0.65;;;;;;;9.37;100.00;98479.94;7393668;19;20018;-84
2023/01/13 08:16:26;;;;;;;0.10;0.00;;;;;;;9.32;100.00;98489.00;7393249;19;20022;-84
2023/01/13 08:18:53;;;;;;;0.10;0.00;;;;;;;9.24;100.00;98494.31;7393714;19;20085;-84
2023/01/13 08:21:19;;;;;;;0.10;0.00;;;;;;;9.43;100.00;98500.16;7390348;19;20011;-84
2023/01/13 08:23:45;;;;;;;0.30;0.20;;;;;;;9.45;100.00;98511.53;7386230;19;20014;-85
2023/01/13 08:26:15;;;;;;;2.90;0.50;;;;;;;9.50;100.00;98522.69;7390756;19;20022;-84
2023/01/13 08:28:41;;;;;;;0.10;0.10;;;;;;;9.64;100.00;98516.13;7391202;19;20031;-85
2023/01/13 08:31:10;;;;;;;0.10;0.00;;;;;;;9.46;100.00;98522.16;7390398;19;20010;-83
2023/01/13 08:33:37;;;;;;;0.10;0.10;;;;;;;9.40;100.00;98524.16;7387577;19;20074;-84
2023/01/13 08:36:05;;;;;;;0.90;0.75;;;;;;;9.44;100.00;98530.22;7391134;19;20022;-85
2023/01/13 08:38:33;;;;;;;0.10;0.10;;;;;;;9.67;100.00;98539.41;7390917;19;20018;-84
2023/01/13 08:40:59;;;;;;;0.32;0.32;;;;;;;9.88;100.00;98551.81;7389170;19;20044;-84
2023/01/13 08:43:26;;;;;;;2.53;0.65;;;;;;;9.77;100.00;98552.56;7388133;19;20046;-84
2023/01/13 08:46:00;;;;;;;0.08;0.08;;;;;;;9.84;100.00;98568.00;7392240;19;20011;-84
2023/01/13 08:48:27;;;;;;;4.07;0.35;;;;;;;10.29;100.00;98564.06;7391249;19;20029;-83
2023/01/13 08:50:59;;;;;;;1.05;0.70;;;;;;;10.86;100.00;98554.41;7388446;19;20499;-85
2023/01/13 08:53:26;;;;;;;0.15;0.15;;;;;;;10.31;100.00;98572.66;7393134;19;20053;-83
2023/01/13 08:55:52;;;;;;;0.00;0.00;;;;;;;10.05;100.00;98572.09;7393852;19;20026;-84
2023/01/13 08:58:18;;;;;;;0.10;0.00;;;;;;;9.88;100.00;98574.06;7388756;19;20021;-85
2023/01/13 09:00:44;;;;;;;0.45;0.45;;;;;;;10.29;100.00;98574.41;7387559;19;20014;-82
2023/01/13 09:03:10;;;;;;;0.10;0.10;;;;;;;10.28;100.00;98579.25;7385353;19;20037;-83
2023/01/13 09:05:37;;;;;;;0.57;0.20;;;;;;;10.61;100.00;98570.88;7389158;19;20041;-83
2023/01/13 09:08:03;;;;;;;1.02;0.40;;;;;;;11.01;100.00;98593.91;7387042;19;20027;-83
2023/01/13 09:10:29;;;;;;;5.30;0.32;;;;;;;11.24;100.00;98592.59;7390132;19;20023;-83
2023/01/13 09:13:13;;;;;;;1.90;0.85;;;;;;;11.11;100.00;98593.09;7386979;19;20018;-83
2023/01/13 09:15:42;;;;;;;0.10;0.10;;;;;;;10.65;100.00;98590.88;7390344;19;20021;-79
2023/01/13 09:18:09;;;;;;;0.40;0.35;;;;;;;10.78;100.00;98592.41;7386980;19;20030;-84
2023/01/13 09:20:35;;;;;;;4.72;0.88;;;;;;;10.81;100.00;98599.72;7387201;19;20018;-84
2023/01/13 09:23:01;;;;;;;3.03;1.00;;;;;;;10.64;100.00;98594.94;7385134;19;20622;-84
2023/01/13 09:25:28;;;;;;;0.10;0.00;;;;;;;10.76;100.00;98595.72;7388257;19;20728;-84
2023/01/13 09:27:55;;;;;;;0.17;0.17;;;;;;;11.79;100.00;98606.34;7386887;19;20536;-84
2023/01/13 09:30:21;;;;;;;0.10;0.10;;;;;;;10.54;100.00;98598.50;7386493;19;20346;-84
2023/01/13 09:32:47;;;;;;;6.10;0.57;;;;;;;10.37;100.00;98604.03;7390807;19;20029;-84
2023/01/13 09:35:13;;;;;;;0.43;0.10;;;;;;;10.12;100.00;98602.22;7396252;19;20018;-84
2023/01/13 09:37:40;;;;;;;0.00;0.00;;;;;;;10.85;100.00;98603.03;7392861;19;20025;-84
2023/01/13 09:40:15;;;;;;;0.05;0.05;;;;;;;10.88;100.00;98613.16;7395802;19;20023;-84
2023/01/13 09:45:56;;;;;;;0.65;0.30;;;;;;;10.69;100.00;98618.50;7397436;19;20789;-84
2023/01/13 09:48:50;;;;;;;2.90;1.17;;;;;;;10.81;100.00;98616.44;7393085;19;20026;-83
2023/01/13 09:51:28;;;;;;;0.40;0.30;;;;;;;11.46;100.00;98628.00;7390497;19;20014;-84
2023/01/13 09:54:24;;;;;;;0.10;0.10;;;;;;;11.06;100.00;98626.56;7396913;19;20026;-84
2023/01/13 09:56:51;;;;;;;1.08;0.15;;;;;;;11.37;100.00;98621.44;7397019;19;20029;-84
2023/01/13 09:59:18;;;;;;;3.13;0.35;;;;;;;11.76;100.00;98626.16;7394090;19;20712;-84
2023/01/13 10:02:15;;;;;;;0.10;0.00;;;;;;;11.60;100.00;98633.28;7394216;19;20019;-83
2023/01/13 10:04:41;;;;;;;0.10;0.10;;;;;;;11.31;100.00;98639.44;7391730;19;20018;-83
2023/01/13 10:07:13;;;;;;;0.20;0.00;;;;;;;11.27;100.00;98650.09;7394264;19;20085;-83
2023/01/13 10:09:52;;;;;;;0.10;0.10;;;;;;;11.87;100.00;98646.38;7396630;19;20025;-83
2023/01/13 10:15:16;;;;;;;4.03;0.28;;;;;;;11.58;100.00;98669.28;7393497;19;20014;-84
2023/01/13 10:17:51;;;;;;;2.80;0.40;;;;;;;12.22;100.00;98670.81;7394324;19;20049;-84
2023/01/13 10:20:39;;;;;;;1.77;0.35;;;;;;;12.29;100.00;98667.50;7393480;19;20018;-83
2023/01/13 10:23:24;;;;;;;0.52;0.40;;;;;;;12.11;100.00;98663.28;7392346;19;20018;-83
2023/01/13 10:26:00;;;;;;;0.25;0.22;;;;;;;11.34;100.00;98677.44;7396867;19;20023;-84
2023/01/13 10:28:27;;;;;;;8.30;0.57;;;;;;;11.84;100.00;98689.28;7393828;19;20682;-83
2023/01/13 10:30:53;;;;;;;0.10;0.10;;;;;;;12.22;100.00;98703.56;7392053;19;20025;-83
2023/01/13 10:33:24;;;;;;;0.50;0.22;;;;;;;12.53;100.00;98689.94;7391814;19;20029;-82
2023/01/13 10:36:00;;;;;;;0.10;0.10;;;;;;;12.53;100.00;98683.59;7396410;19;20049;-83
2023/01/13 10:38:47;;;;;;;0.20;0.13;;;;;;;13.15;100.00;98699.41;7391990;19;20038;-83
2023/01/13 10:41:13;;;;;;;0.17;0.10;;;;;;;12.80;100.00;98710.59;7392198;19;20449;-83
2023/01/13 10:43:59;;;;;;;0.38;0.20;;;;;;;12.72;100.00;98721.56;7390802;19;20611;-83
2023/01/13 10:46:26;;;;;;;1.48;0.57;;;;;;;13.14;100.00;98714.69;7394801;19;20018;-83
2023/01/13 10:48:55;;;;;;;0.10;0.10;;;;;;;13.87;100.00;98714.75;7393053;19;20030;-82
2023/01/13 10:51:38;;;;;;;0.35;0.20;;;;;;;13.96;100.00;98720.00;7388918;19;20010;-82
2023/01/13 10:54:11;;;;;;;0.10;0.00;;;;;;;14.01;100.00;98731.09;7390023;19;20014;-84
2023/01/13 10:56:39;;;;;;;4.07;0.50;;;;;;;12.93;100.00;98733.09;7395144;19;20484;-82
2023/01/13 10:59:14;;;;;;;0.10;0.00;;;;;;;12.87;100.00;98730.34;7397359;19;20070;-82
2023/01/13 11:01:53;;;;;;;1.65;0.52;;;;;;;14.03;100.00;98727.81;7392066;19;20021;-82
2023/01/13 11:04:35;;;;;;;7.70;0.32;;;;;;;14.98;100.00;98734.47;7389091;19;20018;-82
2023/01/13 11:07:05;;;;;;;0.10;0.10;;;;;;;14.61;100.00;98734.47;7391147;19;20074;-83
2023/01/13 11:09:32;;;;;;;0.95;0.43;;;;;;;15.14;100.00;98741.84;7393482;19;20015;-83
2023/01/13 11:11:59;;;;;;;0.52;0.52;;;;;;;14.33;100.00;98745.28;7392837;19;20361;-83
2023/01/13 11:14:49;;;;;;;0.20;0.20;;;;;;;13.72;100.00;98745.94;7390438;19;20022;-83
2023/01/13 11:17:39;;;;;;;4.45;0.47;;;;;;;15.29;100.00;98751.81;7392757;19;20037;-82
2023/01/13 11:20:16;;;;;;;0.10;0.10;;;;;;;13.91;100.00;98754.38;7389415;19;20010;-82
2023/01/13 11:22:51;;;;;;;4.40;0.70;;;;;;;13.84;100.00;98763.38;7388152;19;20066;-82
2023/01/13 11:25:41;;;;;;;13.25;1.90;;;;;;;13.44;100.00;98765.78;7391779;19;20047;-82
2023/01/13 11:28:36;;;;;;;5.47;0.35;;;;;;;14.17;100.00;98777.00;7391876;19;20022;-82
2023/01/13 11:31:32;;;;;;;0.50;0.40;;;;;;;15.36;100.00;98768.00;7392138;19;20024;-82
2023/01/13 11:34:12;;;;;;;0.05;0.00;;;;;;;14.86;100.00;98789.16;7388889;19;20010;-81
2023/01/13 11:36:49;;;;;;;4.75;0.60;;;;;;;15.13;100.00;98802.03;7389863;19;20014;-84
2023/01/13 11:39:38;;;;;;;0.25;0.22;;;;;;;15.84;100.00;98790.19;7394587;19;20025;-82
2023/01/13 11:42:23;;;;;;;1.23;0.20;;;;;;;14.39;100.00;98802.00;7390681;19;20029;-85
2023/01/13 11:45:15;;;;;;;0.15;0.00;;;;;;;15.54;100.00;98812.13;7393440;19;20019;-83
2023/01/13 11:47:45;;;;;;;1.85;0.57;;;;;;;15.91;100.00;98823.25;7388257;19;20018;-83
2023/01/13 11:50:24;;;;;;;0.10;0.05;;;;;;;14.62;100.00;98814.44;7388065;19;20010;-81
2023/01/13 11:53:06;;;;;;;11.95;0.90;;;;;;;15.84;100.00;98812.66;7390272;19;20472;-83
2023/01/13 11:55:57;;;;;;;2.05;0.65;;;;;;;14.81;100.00;98826.41;7389655;19;20025;-83
2023/01/13 11:59:05;;;;;;;1.48;0.68;;;;;;;14.44;100.00;98832.00;7386784;19;20043;-83
2023/01/13 12:01:57;;;;;;;0.20;0.20;;;;;;;15.38;100.00;98844.75;7389937;19;20141;-82
2023/01/13 12:04:44;;;;;;;1.17;0.10;;;;;;;14.85;100.00;98849.31;7387463;19;20023;-82
2023/01/13 12:07:20;;;;;;;0.10;0.00;;;;;;;14.79;100.00;98851.41;7390640;19;20029;-83
2023/01/13 12:09:56;;;;;;;3.92;0.47;;;;;;;14.15;100.00;98860.78;7391179;19;20082;-82
2023/01/13 12:12:33;;;;;;;0.08;0.08;;;;;;;16.17;100.00;98868.25;7387346;19;20448;-82
2023/01/13 12:15:20;;;;;;;0.22;0.22;;;;;;;15.60;100.00;98868.94;7391454;19;20022;-83
2023/01/13 12:17:58;;;;;;;1.10;0.57;;;;;;;15.07;100.00;98877.06;7390199;19;20347;-82
2023/01/13 12:20:24;;;;;;;0.95;0.63;;;;;;;15.72;100.00;98881.50;7390135;19;20443;-83
2023/01/13 12:22:54;;;;;;;1.20;0.35;;;;;;;14.38;100.00;98878.88;7391677;19;20786;-83
2023/01/13 12:25:36;;;;;;;0.05;0.05;;;;;;;16.11;100.00;98881.63;7394743;19;20608;-84
2023/01/13 12:28:24;;;;;;;0.13;0.03;;;;;;;14.27;100.00;98893.75;7390351;19;20018;-82
2023/01/13 12:30:59;;;;;;;0.00;0.00;;;;;;;13.61;100.00;98885.91;7387701;19;20034;-83